US Coast Guard Licensed

Weather in Page

Jan. 22, 2018 6:53 am
Clear
cold24°
wind direction Calm0mph
WindGust: 0

Weather Details

 
Conditions:ClearCloudcover:Sky clear < 12,000AGL
Visibility:10mi / 16kmCloud Base:-- Not Reported --
Humidity:53%Cloud Type:-- Not Reported --
Barometer:Steady last 3hrsPrecipitation:0 last hr
 
Temperature:24° F.
-4° C.
Dewpoint:10° F.
-12° C.
Wind Chill:50° F.
10° C.
Heat Index:-- Too Cool --
 
Wind Speed:0mph
0kts
Gusts:0mph
0kts
Direction:CalmHeading:
 
Pressure:30.29 in
769 mm
14.87705466 psi
1.045962164 kgf/cm²
1025 mb
Sea Lvl.
Pressure:
30.33 in
770 mm
14.89685298 psi
1.047354412 kgf/cm²
1027 mb



Weather Data reported from Page Airport via the National Weather Service.

Report Date: Jan. 22, 2018 6:53 am
METAR:KPGA 221353Z AUTO 00000KT 10SM CLR M04/M12 A3029 RMK AO2 SLP271 T10441122 TSNO